Terminal Aerodrome Forecast
Issued by NWS Indianapolis, IN

Home | Current Version | Previous Version | Text Only | Print | Product List | Glossary On
Versions: 1 2 3 4 5 6 7 8 9 10 11 12 13 14 15 16 17 18 19 20 21 22 23 24 25 26 27 28
317
FTUS43 KIND 200857 AAC
TAFIND
TAF AMD
KIND 200857Z 2009/2112 VRB03KT 1/4SM FG VV006
     FM201400 14004KT 1SM BR BKN006
     FM201600 14006KT P6SM SCT035
     FM201800 15007KT P6SM SCT150
     FM210700 18006KT P6SM BKN150=

USA.gov is the U.S. government's official web portal to all federal, state and local government web resources and services.